Terminal Aerodrome Forecast
Issued by NWS

Home | Current Version | Previous Version | Text Only | Print | Product List | Glossary On
Versions: 1 2 3 4 5 6 7 8 9 10 11 12 13
712
FTUS43 KFGF 140535
TAFTVF
TAF
KTVF 140535Z 1406/1506 14015G23KT P6SM BKN035
     FM140800 15018G25KT 4SM -SN OVC025
     FM141200 17010KT 4SM -SN OVC015=

USA.gov is the U.S. government's official web portal to all federal, state and local government web resources and services.